createdAt,value
2022-10-18T00:00:26.922Z,6.70
2022-10-18T00:02:44.286Z,6.70
2022-10-18T00:05:01.285Z,6.25
2022-10-18T00:07:20.498Z,6.25
2022-10-18T00:09:37.446Z,6.90
2022-10-18T00:11:54.609Z,6.68
2022-10-18T00:14:11.925Z,6.60
2022-10-18T00:16:28.972Z,6.85
2022-10-18T00:18:46.285Z,6.55
2022-10-18T00:21:04.556Z,7.13
2022-10-18T00:23:21.581Z,6.10
2022-10-18T00:25:38.497Z,6.43
2022-10-18T00:27:55.425Z,6.50
2022-10-18T00:30:13.619Z,6.72
2022-10-18T00:32:31.239Z,6.50
2022-10-18T00:34:48.604Z,7.03
2022-10-18T00:37:05.511Z,6.60
2022-10-18T00:39:22.548Z,6.55
2022-10-18T00:41:39.529Z,6.45
2022-10-18T00:43:57.681Z,6.80
2022-10-18T00:46:14.722Z,7.03
2022-10-18T00:48:31.655Z,7.18
2022-10-18T00:50:48.696Z,7.13
2022-10-18T00:53:05.707Z,6.50
2022-10-18T00:55:22.726Z,6.70
2022-10-18T00:57:39.933Z,7.40
2022-10-18T00:59:57.876Z,6.53
2022-10-18T01:02:15.142Z,6.53
2022-10-18T01:04:32.142Z,6.53
2022-10-18T01:06:50.211Z,7.05
2022-10-18T01:09:07.233Z,7.47
2022-10-18T01:11:26.847Z,7.32
2022-10-18T01:13:43.768Z,6.90
2022-10-18T01:16:00.771Z,7.18
2022-10-18T01:18:17.844Z,6.63
2022-10-18T01:20:35.117Z,7.07
2022-10-18T01:22:52.377Z,7.75
2022-10-18T01:25:09.446Z,8.80
2022-10-18T01:27:26.460Z,7.60
2022-10-18T01:29:43.716Z,8.55
2022-10-18T01:32:00.660Z,7.80
2022-10-18T01:34:17.704Z,5.88
2022-10-18T01:36:34.784Z,3.85
2022-10-18T01:38:51.680Z,3.35
2022-10-18T01:41:14.740Z,2.50
2022-10-18T01:43:34.195Z,2.45
2022-10-18T01:45:51.420Z,2.40
2022-10-18T01:48:08.465Z,2.10
2022-10-18T01:50:25.801Z,2.00
2022-10-18T01:52:42.816Z,1.80
2022-10-18T01:54:59.769Z,2.20
2022-10-18T01:57:18.420Z,2.28
2022-10-18T01:59:35.307Z,2.30
2022-10-18T02:01:52.356Z,2.42
2022-10-18T02:04:09.638Z,2.20
2022-10-18T02:06:26.968Z,2.10
2022-10-18T02:08:44.304Z,1.92
2022-10-18T02:11:02.408Z,2.55
2022-10-18T02:13:19.343Z,2.55
2022-10-18T02:15:36.612Z,2.35
2022-10-18T02:17:53.841Z,2.10
2022-10-18T02:20:14.147Z,1.92
2022-10-18T02:22:32.842Z,2.30
2022-10-18T02:24:50.076Z,2.08
2022-10-18T02:27:07.015Z,2.38
2022-10-18T02:29:23.930Z,2.47
2022-10-18T02:31:40.964Z,2.50
2022-10-18T02:33:58.012Z,2.40
2022-10-18T02:36:15.012Z,2.50
2022-10-18T02:38:31.989Z,2.20
2022-10-18T02:40:49.082Z,2.30
2022-10-18T02:43:07.385Z,2.30
2022-10-18T02:45:24.294Z,2.25
2022-10-18T02:47:42.494Z,2.33
2022-10-18T02:50:00.411Z,2.25
2022-10-18T02:52:18.669Z,2.13
2022-10-18T02:54:36.015Z,2.30
2022-10-18T02:56:52.942Z,2.17
2022-10-18T02:59:10.007Z,2.20
2022-10-18T03:01:26.973Z,2.00
2022-10-18T03:03:44.199Z,2.00
2022-10-18T03:06:03.307Z,1.73
2022-10-18T03:08:21.472Z,1.88
2022-10-18T03:10:38.798Z,1.95
2022-10-18T03:12:55.830Z,2.03
2022-10-18T03:15:13.103Z,2.13
2022-10-18T03:17:31.379Z,2.13
2022-10-18T03:19:48.603Z,2.45
2022-10-18T03:22:05.546Z,2.40
2022-10-18T03:24:23.846Z,2.10
2022-10-18T03:26:40.816Z,2.13
2022-10-18T03:28:57.778Z,2.10
2022-10-18T03:31:14.689Z,2.00
2022-10-18T03:33:33.007Z,2.35
2022-10-18T03:35:50.226Z,1.90
2022-10-18T03:38:07.476Z,1.70
2022-10-18T03:40:24.769Z,1.90
2022-10-18T03:42:41.798Z,2.00
2022-10-18T03:44:59.076Z,2.20
2022-10-18T03:47:16.189Z,1.90
2022-10-18T03:51:51.482Z,2.00
2022-10-18T03:54:08.686Z,2.15
2022-10-18T03:56:26.601Z,1.60
2022-10-18T03:58:43.656Z,1.95
2022-10-18T04:01:00.952Z,2.00
2022-10-18T04:03:18.229Z,2.00
2022-10-18T04:05:35.285Z,1.80
2022-10-18T04:07:52.391Z,1.70
2022-10-18T04:10:09.370Z,2.28
2022-10-18T04:12:26.533Z,2.78
2022-10-18T04:14:43.594Z,2.28
2022-10-18T04:17:00.981Z,2.50
2022-10-18T04:19:17.869Z,2.85
2022-10-18T04:21:35.156Z,2.63
2022-10-18T04:23:52.037Z,2.60
2022-10-18T04:26:10.281Z,2.92
2022-10-18T04:28:27.571Z,3.13
2022-10-18T04:30:44.621Z,2.78
2022-10-18T04:33:01.502Z,2.75
2022-10-18T04:35:18.731Z,2.42
2022-10-18T04:37:35.964Z,3.13
2022-10-18T04:39:53.796Z,3.05
2022-10-18T04:42:11.237Z,2.75
2022-10-18T04:44:28.272Z,2.80
2022-10-18T04:46:45.460Z,3.03
2022-10-18T04:49:02.690Z,2.95
2022-10-18T04:51:19.681Z,2.88
2022-10-18T04:53:36.960Z,3.42
2022-10-18T04:55:53.979Z,2.83
2022-10-18T04:58:11.025Z,2.75
2022-10-18T05:00:28.258Z,2.47
2022-10-18T05:02:45.285Z,2.90
2022-10-18T05:05:03.652Z,2.97
2022-10-18T05:07:20.664Z,2.90
2022-10-18T05:09:37.739Z,2.92
2022-10-18T05:11:54.773Z,2.90
2022-10-18T05:14:12.182Z,2.85
2022-10-18T05:16:29.438Z,2.97
2022-10-18T05:18:46.730Z,2.30
2022-10-18T05:21:03.649Z,2.40
2022-10-18T05:23:20.689Z,2.15
2022-10-18T05:25:37.688Z,2.17
2022-10-18T05:27:54.600Z,2.33
2022-10-18T05:30:11.847Z,2.00
2022-10-18T05:32:28.911Z,2.10
2022-10-18T05:34:46.187Z,2.30
2022-10-18T05:37:03.140Z,2.20
2022-10-18T05:39:20.166Z,2.30
2022-10-18T05:41:37.207Z,2.10
2022-10-18T05:43:54.409Z,1.90
2022-10-18T05:46:15.073Z,1.73
2022-10-18T05:48:32.582Z,1.70
2022-10-18T05:50:49.612Z,1.80
2022-10-18T05:53:12.008Z,1.90
2022-10-18T05:55:29.767Z,1.98
2022-10-18T05:57:46.917Z,2.13
2022-10-18T06:00:03.825Z,1.90
2022-10-18T06:02:21.205Z,1.90
2022-10-18T06:04:38.466Z,2.50
2022-10-18T06:06:55.738Z,2.60
2022-10-18T06:09:12.977Z,1.92
2022-10-18T06:11:29.857Z,2.22
2022-10-18T06:13:47.155Z,1.73
2022-10-18T06:16:04.369Z,1.80
2022-10-18T06:18:21.651Z,1.80
2022-10-18T06:20:38.929Z,1.85
2022-10-18T06:22:55.934Z,2.10
2022-10-18T06:25:13.173Z,1.63
2022-10-18T06:27:30.278Z,1.67
2022-10-18T06:29:47.349Z,1.58
2022-10-18T06:32:04.248Z,1.95
2022-10-18T06:34:21.485Z,2.47
2022-10-18T06:36:38.856Z,2.10
2022-10-18T06:38:56.034Z,2.10
2022-10-18T06:41:13.121Z,2.63
2022-10-18T06:43:30.420Z,2.03
2022-10-18T06:45:47.404Z,1.70
2022-10-18T06:48:04.651Z,1.65
2022-10-18T06:50:21.639Z,1.88
2022-10-18T06:52:42.042Z,1.95
2022-10-18T06:54:59.660Z,2.00
2022-10-18T06:57:16.599Z,1.80
2022-10-18T06:59:33.821Z,2.22
2022-10-18T07:01:50.926Z,2.42
2022-10-18T07:04:08.212Z,1.90
2022-10-18T07:06:25.190Z,2.00
2022-10-18T07:08:42.219Z,2.03
2022-10-18T07:10:59.246Z,2.13
2022-10-18T07:13:33.097Z,1.88
2022-10-18T07:15:50.337Z,2.00
2022-10-18T07:18:10.455Z,1.80
2022-10-18T07:20:27.507Z,2.15
2022-10-18T07:22:44.539Z,1.65
2022-10-18T07:25:01.672Z,2.00
2022-10-18T07:27:18.707Z,2.17
2022-10-18T07:29:35.629Z,2.65
2022-10-18T07:31:52.547Z,1.95
2022-10-18T07:34:09.565Z,2.03
2022-10-18T07:36:26.876Z,1.90
2022-10-18T07:38:44.097Z,2.00
2022-10-18T07:41:01.351Z,1.90
2022-10-18T07:43:18.577Z,1.80
2022-10-18T07:47:52.941Z,1.73
2022-10-18T07:50:10.277Z,1.80
2022-10-18T07:52:27.497Z,1.48
2022-10-18T07:54:44.886Z,1.52
2022-10-18T07:57:01.802Z,1.52
2022-10-18T07:59:18.829Z,1.95
2022-10-18T08:01:35.927Z,1.38
2022-10-18T08:03:53.260Z,1.42
2022-10-18T08:06:10.260Z,1.42
2022-10-18T08:08:27.138Z,1.38
2022-10-18T08:10:44.094Z,1.50
2022-10-18T08:13:01.325Z,1.70
2022-10-18T08:15:18.325Z,1.90
2022-10-18T08:17:35.441Z,2.20
2022-10-18T08:20:04.829Z,1.52
2022-10-18T08:22:29.816Z,1.70
2022-10-18T08:24:48.067Z,1.40
2022-10-18T08:27:05.090Z,1.30
2022-10-18T08:29:24.979Z,1.42
2022-10-18T08:31:43.969Z,2.05
2022-10-18T08:34:01.219Z,2.50
2022-10-18T08:36:20.685Z,2.38
2022-10-18T08:38:37.985Z,2.55
2022-10-18T08:40:55.020Z,2.70
2022-10-18T08:43:12.016Z,2.25
2022-10-18T08:45:41.509Z,1.67
2022-10-18T08:47:59.794Z,1.50
2022-10-18T08:50:16.807Z,1.40
2022-10-18T08:52:33.862Z,1.27
2022-10-18T08:54:52.081Z,1.35
2022-10-18T08:57:08.997Z,1.33
2022-10-18T08:59:26.943Z,1.35
2022-10-18T09:01:44.097Z,1.13
2022-10-18T09:04:01.160Z,1.30
2022-10-18T09:06:21.172Z,1.10
2022-10-18T09:08:40.307Z,1.25
2022-10-18T09:13:15.362Z,1.30
2022-10-18T09:15:32.347Z,1.45
2022-10-18T09:17:49.480Z,1.50
2022-10-18T09:20:08.890Z,1.70
2022-10-18T09:22:26.223Z,1.80
2022-10-18T09:24:43.150Z,1.40
2022-10-18T09:27:00.085Z,1.33
2022-10-18T09:29:17.024Z,1.35
2022-10-18T09:31:34.290Z,1.35
2022-10-18T09:33:51.298Z,1.30
2022-10-18T09:36:08.235Z,1.25
2022-10-18T09:40:44.472Z,1.40
2022-10-18T09:43:01.462Z,1.40
2022-10-18T09:45:18.455Z,1.30
2022-10-18T09:47:35.792Z,1.30
2022-10-18T09:49:52.806Z,1.75
2022-10-18T09:52:17.134Z,1.50
2022-10-18T09:54:34.164Z,1.35
2022-10-18T09:56:52.246Z,1.08
2022-10-18T09:59:09.540Z,1.50
2022-10-18T10:01:26.577Z,1.10
2022-10-18T10:03:43.791Z,1.00
2022-10-18T10:06:00.772Z,1.00
2022-10-18T10:08:18.478Z,0.80
2022-10-18T10:10:35.502Z,0.70
2022-10-18T10:12:52.543Z,0.60
2022-10-18T10:15:09.425Z,0.32
2022-10-18T10:17:26.616Z,0.40
2022-10-18T10:19:43.920Z,0.45
2022-10-18T10:22:02.142Z,0.40
2022-10-18T10:24:19.268Z,0.30
2022-10-18T10:26:36.345Z,0.30
2022-10-18T10:28:53.480Z,0.45
2022-10-18T10:31:10.790Z,0.50
2022-10-18T10:33:31.512Z,0.75
2022-10-18T10:35:54.295Z,0.40
2022-10-18T10:38:11.530Z,0.40
2022-10-18T10:40:28.932Z,0.50
2022-10-18T10:42:46.794Z,0.40
2022-10-18T10:45:03.925Z,0.43
2022-10-18T10:47:22.109Z,0.40
2022-10-18T10:49:40.769Z,0.45
2022-10-18T10:52:08.916Z,0.60
2022-10-18T10:54:32.996Z,0.50
2022-10-18T10:56:50.265Z,0.50
2022-10-18T10:59:07.367Z,0.60
2022-10-18T11:01:24.709Z,0.45
2022-10-18T11:03:41.760Z,0.60
2022-10-18T11:05:58.985Z,0.52
2022-10-18T11:08:19.386Z,0.50
2022-10-18T11:10:38.748Z,0.77
2022-10-18T11:12:56.190Z,0.75
2022-10-18T11:15:15.753Z,0.60
2022-10-18T11:17:32.666Z,0.70
2022-10-18T11:19:50.934Z,0.80
2022-10-18T11:22:09.342Z,0.65
2022-10-18T11:24:35.752Z,0.60
2022-10-18T11:26:53.855Z,0.70
2022-10-18T11:29:12.038Z,0.65
2022-10-18T11:31:29.356Z,0.70
2022-10-18T11:34:08.124Z,0.90
2022-10-18T11:38:45.625Z,1.20
2022-10-18T11:41:03.237Z,1.10
2022-10-18T11:43:20.300Z,1.02
2022-10-18T11:45:37.532Z,1.08
2022-10-18T11:47:55.864Z,1.10
2022-10-18T11:50:13.334Z,0.90
2022-10-18T11:52:30.259Z,1.17
2022-10-18T11:54:48.254Z,1.00
2022-10-18T11:57:05.257Z,0.98
2022-10-18T11:59:22.164Z,1.30
2022-10-18T12:01:44.338Z,1.00
2022-10-18T12:04:02.212Z,0.93
2022-10-18T12:06:22.356Z,0.80
2022-10-18T12:08:39.309Z,0.60
2022-10-18T12:11:05.114Z,0.77
2022-10-18T12:13:24.051Z,0.90
2022-10-18T12:15:41.004Z,0.90
2022-10-18T12:17:58.010Z,0.73
2022-10-18T12:20:15.055Z,0.80
2022-10-18T12:22:39.620Z,0.90
2022-10-18T12:24:56.964Z,0.80
2022-10-18T12:27:15.219Z,0.80
2022-10-18T12:29:32.298Z,0.80
2022-10-18T12:31:49.260Z,0.80
2022-10-18T12:34:06.392Z,0.90
2022-10-18T12:36:26.217Z,0.80
2022-10-18T12:38:49.746Z,0.80
2022-10-18T12:41:12.155Z,0.90
2022-10-18T12:43:29.135Z,0.80
2022-10-18T12:45:46.207Z,0.73
2022-10-18T12:48:05.672Z,0.85
2022-10-18T12:50:23.000Z,0.85
2022-10-18T12:52:40.107Z,0.85
2022-10-18T12:54:57.519Z,1.17
2022-10-18T12:57:14.703Z,1.00
2022-10-18T12:59:32.635Z,0.75
2022-10-18T13:01:52.158Z,0.88
2022-10-18T13:04:09.153Z,0.70
2022-10-18T13:06:26.361Z,0.65
2022-10-18T13:08:43.412Z,0.70
2022-10-18T13:11:02.375Z,1.15
2022-10-18T13:13:38.712Z,0.90
2022-10-18T13:15:57.256Z,0.85
2022-10-18T13:18:14.534Z,1.20
2022-10-18T13:20:32.505Z,0.80
2022-10-18T13:22:49.762Z,0.90
2022-10-18T13:25:07.021Z,0.80
2022-10-18T13:27:35.461Z,0.90
2022-10-18T13:29:53.076Z,0.90
2022-10-18T13:32:10.095Z,0.80
2022-10-18T13:34:27.297Z,0.90
2022-10-18T13:36:44.587Z,1.10
2022-10-18T13:39:01.513Z,2.00
2022-10-18T13:41:18.671Z,1.00
2022-10-18T13:43:35.638Z,1.20
2022-10-18T13:45:52.862Z,1.27
2022-10-18T13:48:09.787Z,1.27
2022-10-18T13:50:26.935Z,1.58
2022-10-18T13:52:43.846Z,1.10
2022-10-18T13:55:00.785Z,1.10
2022-10-18T13:57:17.713Z,1.20
2022-10-18T14:01:58.097Z,1.10
2022-10-18T14:04:15.342Z,1.05
2022-10-18T14:06:32.698Z,1.38
2022-10-18T14:08:50.012Z,1.20
2022-10-18T14:11:06.877Z,1.33
2022-10-18T14:13:23.817Z,1.15
2022-10-18T14:15:40.752Z,1.50
2022-10-18T14:17:57.760Z,1.10
2022-10-18T14:20:15.015Z,1.20
2022-10-18T14:22:33.574Z,1.00
2022-10-18T14:24:50.999Z,1.30
2022-10-18T14:27:07.944Z,1.30
2022-10-18T14:29:25.005Z,0.95
2022-10-18T14:31:42.047Z,1.33
2022-10-18T14:33:59.134Z,1.20
2022-10-18T14:36:16.157Z,1.30
2022-10-18T14:38:33.407Z,1.30
2022-10-18T14:40:50.459Z,1.20
2022-10-18T14:43:07.795Z,1.40
2022-10-18T14:45:25.078Z,1.30
2022-10-18T14:47:42.147Z,1.30
2022-10-18T14:49:59.116Z,1.70
2022-10-18T14:52:16.102Z,1.40
2022-10-18T14:54:33.351Z,1.60
2022-10-18T14:56:50.426Z,1.20
2022-10-18T14:59:07.463Z,1.60
2022-10-18T15:01:24.533Z,1.50
2022-10-18T15:03:41.612Z,1.60
2022-10-18T15:05:58.533Z,1.60
2022-10-18T15:08:15.540Z,1.80
2022-10-18T15:10:32.950Z,1.67
2022-10-18T15:15:27.212Z,1.75
2022-10-18T15:17:44.490Z,1.90
2022-10-18T15:20:05.052Z,1.65
2022-10-18T15:22:38.498Z,1.83
2022-10-18T15:24:55.607Z,1.77
2022-10-18T15:27:12.660Z,1.83
2022-10-18T15:29:30.073Z,2.60
2022-10-18T15:31:47.029Z,2.65
2022-10-18T15:34:04.000Z,1.92
2022-10-18T15:36:21.068Z,1.80
2022-10-18T15:38:38.035Z,1.80
2022-10-18T15:40:55.347Z,1.95
2022-10-18T15:43:12.498Z,2.00
2022-10-18T15:45:29.512Z,1.88
2022-10-18T15:47:47.638Z,1.90
2022-10-18T15:50:04.582Z,1.90
2022-10-18T15:52:21.441Z,2.13
2022-10-18T15:54:38.489Z,2.28
2022-10-18T15:56:55.890Z,2.10
2022-10-18T15:59:12.928Z,2.38
2022-10-18T16:01:30.317Z,1.80
2022-10-18T16:03:47.457Z,2.20
2022-10-18T16:06:04.767Z,2.38
2022-10-18T16:08:21.810Z,2.17
2022-10-18T16:10:38.699Z,2.28
2022-10-18T16:15:17.629Z,2.30
2022-10-18T16:17:35.069Z,2.47
2022-10-18T16:19:52.342Z,2.80
2022-10-18T16:22:10.286Z,2.58
2022-10-18T16:24:28.008Z,2.80
2022-10-18T16:26:45.330Z,2.80
2022-10-18T16:29:02.356Z,3.10
2022-10-18T16:31:19.374Z,2.92
2022-10-18T16:33:36.378Z,2.60
2022-10-18T16:35:53.375Z,2.80
2022-10-18T16:38:11.413Z,2.75
2022-10-18T16:40:28.373Z,2.28
2022-10-18T16:42:45.299Z,2.50
2022-10-18T16:45:02.173Z,2.55
2022-10-18T16:47:19.570Z,2.72
2022-10-18T16:49:37.945Z,2.80
2022-10-18T16:51:55.200Z,2.70
2022-10-18T16:54:13.224Z,2.83
2022-10-18T16:56:30.102Z,2.63
2022-10-18T16:58:47.021Z,2.50
2022-10-18T17:01:06.707Z,2.47
2022-10-18T17:03:25.906Z,2.90
2022-10-18T17:05:42.920Z,2.90
2022-10-18T17:07:59.958Z,3.08
2022-10-18T17:10:16.847Z,2.85
2022-10-18T17:12:34.123Z,3.03
2022-10-18T17:14:51.315Z,2.80
2022-10-18T17:17:08.602Z,3.20
2022-10-18T17:19:25.947Z,2.60
2022-10-18T17:21:42.989Z,3.20
2022-10-18T17:24:01.212Z,2.95
2022-10-18T17:26:28.186Z,2.90
2022-10-18T17:28:46.459Z,2.78
2022-10-18T17:31:03.846Z,2.97
2022-10-18T17:33:20.684Z,2.67
2022-10-18T17:35:37.664Z,2.60
2022-10-18T17:37:54.694Z,3.25
2022-10-18T17:40:11.629Z,2.60
2022-10-18T17:42:32.056Z,3.20
2022-10-18T17:44:50.426Z,3.08
2022-10-18T17:47:09.059Z,3.40
2022-10-18T17:49:26.064Z,3.40
2022-10-18T17:51:43.120Z,2.97
2022-10-18T17:54:00.138Z,3.40
2022-10-18T17:56:17.070Z,2.80
2022-10-18T17:58:34.502Z,3.55
2022-10-18T18:00:51.721Z,3.45
2022-10-18T18:03:08.984Z,3.22
2022-10-18T18:05:26.321Z,3.90
2022-10-18T18:07:43.325Z,2.90
2022-10-18T18:10:01.420Z,3.08
2022-10-18T18:12:18.485Z,3.35
2022-10-18T18:14:35.748Z,3.42
2022-10-18T18:16:53.055Z,3.78
2022-10-18T18:19:10.324Z,3.63
2022-10-18T18:21:27.672Z,3.38
2022-10-18T18:23:44.548Z,3.42
2022-10-18T18:26:01.560Z,3.40
2022-10-18T18:28:18.808Z,3.35
2022-10-18T18:30:36.122Z,3.30
2022-10-18T18:32:53.163Z,3.97
2022-10-18T18:35:10.212Z,3.03
2022-10-18T18:37:27.466Z,3.08
2022-10-18T18:39:44.476Z,3.40
2022-10-18T18:42:01.543Z,5.38
2022-10-18T18:44:18.837Z,4.80
2022-10-18T18:46:35.894Z,4.18
2022-10-18T18:48:52.856Z,4.20
2022-10-18T18:51:09.779Z,6.90
2022-10-18T18:53:29.449Z,6.45
2022-10-18T18:55:47.026Z,6.30
2022-10-18T18:58:04.923Z,8.80
2022-10-18T19:00:21.968Z,9.73
2022-10-18T19:02:39.002Z,12.07
2022-10-18T19:04:56.295Z,11.88
2022-10-18T19:07:13.657Z,13.15
2022-10-18T19:09:30.913Z,11.52
2022-10-18T19:11:47.868Z,8.00
2022-10-18T19:14:05.868Z,5.50
2022-10-18T19:16:22.777Z,5.50
2022-10-18T19:18:39.745Z,5.38
2022-10-18T19:20:56.738Z,6.25
2022-10-18T19:23:14.035Z,6.07
2022-10-18T19:25:31.326Z,5.90
2022-10-18T19:27:48.607Z,5.18
2022-10-18T19:30:05.887Z,5.03
2022-10-18T19:32:23.184Z,5.53
2022-10-18T19:34:40.512Z,4.53
2022-10-18T19:36:57.740Z,4.45
2022-10-18T19:39:14.714Z,4.70
2022-10-18T19:41:31.768Z,4.40
2022-10-18T19:43:48.759Z,4.45
2022-10-18T19:46:05.678Z,5.43
2022-10-18T19:48:22.622Z,4.72
2022-10-18T19:50:39.888Z,5.80
2022-10-18T19:52:57.098Z,5.03
2022-10-18T19:55:14.378Z,4.75
2022-10-18T19:57:31.330Z,4.75
2022-10-18T19:59:48.309Z,4.57
2022-10-18T20:02:05.307Z,4.90
2022-10-18T20:04:22.244Z,4.53
2022-10-18T20:06:39.291Z,4.32
2022-10-18T20:08:56.216Z,4.15
2022-10-18T20:11:13.233Z,4.55
2022-10-18T20:13:31.798Z,4.13
2022-10-18T20:15:48.871Z,4.30
2022-10-18T20:18:05.822Z,4.50
2022-10-18T20:20:22.843Z,4.13
2022-10-18T20:22:39.834Z,3.78
2022-10-18T20:24:57.029Z,4.28
2022-10-18T20:27:13.921Z,4.05
2022-10-18T20:29:31.178Z,4.53
2022-10-18T20:31:48.448Z,5.03
2022-10-18T20:34:05.486Z,4.28
2022-10-18T20:36:23.668Z,4.57
2022-10-18T20:38:40.748Z,4.32
2022-10-18T20:40:57.807Z,4.20
2022-10-18T20:43:14.785Z,4.10
2022-10-18T20:45:31.717Z,4.93
2022-10-18T20:47:48.917Z,4.47
2022-10-18T20:50:07.177Z,4.63
2022-10-18T20:52:24.094Z,4.68
2022-10-18T20:54:41.198Z,5.03
2022-10-18T20:56:59.072Z,4.80
2022-10-18T20:59:16.282Z,5.63
2022-10-18T21:01:33.310Z,5.43
2022-10-18T21:03:50.378Z,5.35
2022-10-18T21:06:07.659Z,4.93
2022-10-18T21:08:24.646Z,4.80
2022-10-18T21:10:41.970Z,5.28
2022-10-18T21:12:59.221Z,5.22
2022-10-18T21:15:16.216Z,4.90
2022-10-18T21:17:33.190Z,4.85
2022-10-18T21:19:50.399Z,5.50
2022-10-18T21:22:07.526Z,5.05
2022-10-18T21:24:24.500Z,5.05
2022-10-18T21:26:43.912Z,5.35
2022-10-18T21:29:01.283Z,5.72
2022-10-18T21:31:18.448Z,5.95
2022-10-18T21:33:35.432Z,5.88
2022-10-18T21:35:52.347Z,5.95
2022-10-18T21:38:09.773Z,7.10
2022-10-18T21:40:29.405Z,6.45
2022-10-18T21:42:47.269Z,6.25
2022-10-18T21:45:04.578Z,7.35
2022-10-18T21:47:21.859Z,7.10
2022-10-18T21:49:38.900Z,7.57
2022-10-18T21:51:55.817Z,8.40
2022-10-18T21:54:13.172Z,7.25
2022-10-18T21:56:30.268Z,8.13
2022-10-18T21:58:47.464Z,7.35
2022-10-18T22:01:05.899Z,7.57
2022-10-18T22:03:23.240Z,8.25
2022-10-18T22:05:40.251Z,7.00
2022-10-18T22:07:57.231Z,8.40
2022-10-18T22:10:14.542Z,7.85
2022-10-18T22:12:31.929Z,9.13
2022-10-18T22:14:49.973Z,9.32
2022-10-18T22:17:09.299Z,9.57
2022-10-18T22:19:26.551Z,9.70
2022-10-18T22:21:43.861Z,10.20
2022-10-18T22:24:01.897Z,9.52
2022-10-18T22:26:19.459Z,9.50
2022-10-18T22:28:37.894Z,9.65
2022-10-18T22:30:55.899Z,9.75
2022-10-18T22:33:13.050Z,10.85
2022-10-18T22:35:30.123Z,11.68
2022-10-18T22:37:47.100Z,13.15
2022-10-18T22:40:04.504Z,14.63
2022-10-18T22:42:21.985Z,14.65
2022-10-18T22:44:38.940Z,13.68
2022-10-18T22:46:56.116Z,14.73
2022-10-18T22:49:13.467Z,15.05
2022-10-18T22:51:31.437Z,13.80
2022-10-18T22:53:48.435Z,14.23
2022-10-18T22:56:06.514Z,13.35
2022-10-18T22:58:23.873Z,14.70
2022-10-18T23:00:40.819Z,13.77
2022-10-18T23:02:58.181Z,14.15
2022-10-18T23:05:15.285Z,13.38
2022-10-18T23:07:32.165Z,13.68
2022-10-18T23:09:49.165Z,14.88
2022-10-18T23:12:06.490Z,12.98
2022-10-18T23:14:24.686Z,13.30
2022-10-18T23:16:41.669Z,13.90
2022-10-18T23:18:59.005Z,12.68
2022-10-18T23:21:16.353Z,13.32
2022-10-18T23:23:33.286Z,13.82
2022-10-18T23:25:51.744Z,13.90
2022-10-18T23:28:09.168Z,13.75
2022-10-18T23:30:26.494Z,14.32
2022-10-18T23:32:43.464Z,13.70
2022-10-18T23:35:01.472Z,14.20
2022-10-18T23:37:18.599Z,13.63
2022-10-18T23:39:35.894Z,13.40
2022-10-18T23:41:54.148Z,14.43
2022-10-18T23:44:11.514Z,14.07
2022-10-18T23:46:28.777Z,14.02
2022-10-18T23:48:46.021Z,13.70
2022-10-18T23:51:03.321Z,14.02
2022-10-18T23:53:20.474Z,13.90
2022-10-18T23:55:37.873Z,14.05
2022-10-18T23:57:57.116Z,13.68
